sensor_id;sensor_type;location;lat;lon;timestamp;pressure;altitude;pressure_sealevel;temperature;humidity
46836;BME280;32573;51.290;6.926;2023-05-09T00:00:27;100383.84;;;16.43;100.00
46836;BME280;32573;51.290;6.926;2023-05-09T00:02:56;100379.41;;;16.42;100.00
46836;BME280;32573;51.290;6.926;2023-05-09T00:05:26;100375.00;;;16.41;100.00
46836;BME280;32573;51.290;6.926;2023-05-09T00:07:56;100371.47;;;16.41;100.00
46836;BME280;32573;51.290;6.926;2023-05-09T00:10:25;100366.19;;;16.37;100.00
46836;BME280;32573;51.290;6.926;2023-05-09T00:12:54;100360.00;;;16.37;100.00
46836;BME280;32573;51.290;6.926;2023-05-09T00:15:25;100362.63;;;16.35;100.00
46836;BME280;32573;51.290;6.926;2023-05-09T00:17:55;100365.25;;;16.34;100.00
46836;BME280;32573;51.290;6.926;2023-05-09T00:20:24;100361.75;;;16.33;100.00
46836;BME280;32573;51.290;6.926;2023-05-09T00:22:54;100350.28;;;16.31;100.00
46836;BME280;32573;51.290;6.926;2023-05-09T00:25:23;100352.00;;;16.29;100.00
46836;BME280;32573;51.290;6.926;2023-05-09T00:27:52;100350.25;;;16.28;100.00
46836;BME280;32573;51.290;6.926;2023-05-09T00:30:20;100345.81;;;16.26;100.00
46836;BME280;32573;51.290;6.926;2023-05-09T00:32:49;100347.56;;;16.24;100.00
46836;BME280;32573;51.290;6.926;2023-05-09T00:35:18;100341.41;;;16.23;100.00
46836;BME280;32573;51.290;6.926;2023-05-09T00:37:47;100331.72;;;16.21;100.00
46836;BME280;32573;51.290;6.926;2023-05-09T00:40:17;100329.91;;;16.20;100.00
46836;BME280;32573;51.290;6.926;2023-05-09T00:42:46;100324.66;;;16.18;100.00
46836;BME280;32573;51.290;6.926;2023-05-09T00:45:14;100331.69;;;16.17;100.00
46836;BME280;32573;51.290;6.926;2023-05-09T00:47:43;100326.38;;;16.16;100.00
46836;BME280;32573;51.290;6.926;2023-05-09T00:50:12;100328.16;;;16.15;100.00
46836;BME280;32573;51.290;6.926;2023-05-09T00:52:41;100321.06;;;16.14;100.00
46836;BME280;32573;51.290;6.926;2023-05-09T00:55:10;100317.53;;;16.12;100.00
46836;BME280;32573;51.290;6.926;2023-05-09T00:57:41;100311.38;;;16.10;100.00
46836;BME280;32573;51.290;6.926;2023-05-09T01:00:12;100314.03;;;16.10;100.00
46836;BME280;32573;51.290;6.926;2023-05-09T01:02:42;100310.47;;;16.08;100.00
46836;BME280;32573;51.290;6.926;2023-05-09T01:05:11;100306.94;;;16.06;100.00
46836;BME280;32573;51.290;6.926;2023-05-09T01:07:44;100300.75;;;16.04;100.00
46836;BME280;32573;51.290;6.926;2023-05-09T01:10:22;100302.53;;;16.05;100.00
46836;BME280;32573;51.290;6.926;2023-05-09T01:13:01;100301.63;;;16.03;100.00
46836;BME280;32573;51.290;6.926;2023-05-09T01:15:36;100295.47;;;16.03;100.00
46836;BME280;32573;51.290;6.926;2023-05-09T01:18:10;100291.06;;;16.00;100.00
46836;BME280;32573;51.290;6.926;2023-05-09T01:20:44;100289.28;;;15.99;100.00
46836;BME280;32573;51.290;6.926;2023-05-09T01:23:40;100291.91;;;15.98;100.00
46836;BME280;32573;51.290;6.926;2023-05-09T01:26:18;100284.84;;;15.96;100.00
46836;BME280;32573;51.290;6.926;2023-05-09T01:29:08;100283.97;;;15.96;100.00
46836;BME280;32573;51.290;6.926;2023-05-09T01:31:40;100286.59;;;15.94;100.00
46836;BME280;32573;51.290;6.926;2023-05-09T01:34:10;100280.44;;;15.94;100.00
46836;BME280;32573;51.290;6.926;2023-05-09T01:36:41;100278.69;;;15.93;100.00
46836;BME280;32573;51.290;6.926;2023-05-09T01:39:11;100274.25;;;15.92;100.00
46836;BME280;32573;51.290;6.926;2023-05-09T01:41:41;100273.34;;;15.90;100.00
46836;BME280;32573;51.290;6.926;2023-05-09T01:44:11;100282.19;;;15.90;100.00
46836;BME280;32573;51.290;6.926;2023-05-09T01:46:41;100278.63;;;15.88;100.00
46836;BME280;32573;51.290;6.926;2023-05-09T01:49:11;100277.75;;;15.88;100.00
46836;BME280;32573;51.290;6.926;2023-05-09T01:51:41;100272.47;;;15.88;100.00
46836;BME280;32573;51.290;6.926;2023-05-09T01:54:11;100280.41;;;15.88;100.00
46836;BME280;32573;51.290;6.926;2023-05-09T01:56:41;100275.13;;;15.88;100.00
46836;BME280;32573;51.290;6.926;2023-05-09T01:59:13;100271.59;;;15.89;100.00
46836;BME280;32573;51.290;6.926;2023-05-09T02:01:42;100266.31;;;15.89;100.00
46836;BME280;32573;51.290;6.926;2023-05-09T02:04:12;100267.19;;;15.88;100.00
46836;BME280;32573;51.290;6.926;2023-05-09T02:06:43;100265.44;;;15.88;100.00
46836;BME280;32573;51.290;6.926;2023-05-09T02:09:12;100273.34;;;15.88;100.00
46836;BME280;32573;51.290;6.926;2023-05-09T02:11:41;100278.63;;;15.90;100.00
46836;BME280;32573;51.290;6.926;2023-05-09T02:14:11;100267.19;;;15.89;100.00
46836;BME280;32573;51.290;6.926;2023-05-09T02:16:40;100272.50;;;15.91;100.00
46836;BME280;32573;51.290;6.926;2023-05-09T02:19:09;100267.19;;;15.89;100.00
46836;BME280;32573;51.290;6.926;2023-05-09T02:21:38;100269.84;;;15.91;100.00
46836;BME280;32573;51.290;6.926;2023-05-09T02:24:06;100261.94;;;15.91;100.00
46836;BME280;32573;51.290;6.926;2023-05-09T02:26:35;100268.97;;;15.90;100.00
46836;BME280;32573;51.290;6.926;2023-05-09T02:29:05;100273.34;;;15.90;100.00
46836;BME280;32573;51.290;6.926;2023-05-09T02:31:38;100272.47;;;15.88;100.00
46836;BME280;32573;51.290;6.926;2023-05-09T02:34:08;100270.72;;;15.88;100.00
46836;BME280;32573;51.290;6.926;2023-05-09T02:36:39;100260.13;;;15.87;100.00
46836;BME280;32573;51.290;6.926;2023-05-09T02:39:08;100262.78;;;15.87;100.00
46836;BME280;32573;51.290;6.926;2023-05-09T02:41:37;100268.94;;;15.87;100.00
46836;BME280;32573;51.290;6.926;2023-05-09T02:44:06;100266.31;;;15.86;100.00
46836;BME280;32573;51.290;6.926;2023-05-09T02:46:34;100261.91;;;15.86;100.00
46836;BME280;32573;51.290;6.926;2023-05-09T02:49:04;100263.66;;;15.86;100.00
46836;BME280;32573;51.290;6.926;2023-05-09T02:51:33;100263.66;;;15.86;100.00
46836;BME280;32573;51.290;6.926;2023-05-09T02:54:02;100261.03;;;15.86;100.00
46836;BME280;32573;51.290;6.926;2023-05-09T02:56:31;100258.38;;;15.86;100.00
46836;BME280;32573;51.290;6.926;2023-05-09T02:58:59;100261.91;;;15.86;100.00
46836;BME280;32573;51.290;6.926;2023-05-09T03:01:28;100260.13;;;15.85;100.00
46836;BME280;32573;51.290;6.926;2023-05-09T03:03:57;100253.94;;;15.85;100.00
46836;BME280;32573;51.290;6.926;2023-05-09T03:06:27;100257.47;;;15.84;100.00
46836;BME280;32573;51.290;6.926;2023-05-09T03:08:56;100250.44;;;15.83;100.00
46836;BME280;32573;51.290;6.926;2023-05-09T03:11:24;100249.56;;;15.84;100.00
46836;BME280;32573;51.290;6.926;2023-05-09T03:13:53;100241.63;;;15.84;100.00
46836;BME280;32573;51.290;6.926;2023-05-09T03:16:22;100244.28;;;15.84;100.00
46836;BME280;32573;51.290;6.926;2023-05-09T03:18:51;100257.47;;;15.84;100.00
46836;BME280;32573;51.290;6.926;2023-05-09T03:21:19;100246.03;;;15.83;100.00
46836;BME280;32573;51.290;6.926;2023-05-09T03:23:50;100241.63;;;15.82;100.00
46836;BME280;32573;51.290;6.926;2023-05-09T03:26:18;100240.72;;;15.82;100.00
46836;BME280;32573;51.290;6.926;2023-05-09T03:28:47;100238.09;;;15.80;100.00
46836;BME280;32573;51.290;6.926;2023-05-09T03:31:16;100233.69;;;15.79;100.00
46836;BME280;32573;51.290;6.926;2023-05-09T03:33:45;100245.13;;;15.80;100.00
46836;BME280;32573;51.290;6.926;2023-05-09T03:36:15;100247.75;;;15.80;100.00
46836;BME280;32573;51.290;6.926;2023-05-09T03:38:43;100248.63;;;15.79;100.00
46836;BME280;32573;51.290;6.926;2023-05-09T03:41:15;100248.63;;;15.79;100.00
46836;BME280;32573;51.290;6.926;2023-05-09T03:43:46;100246.88;;;15.78;100.00
46836;BME280;32573;51.290;6.926;2023-05-09T03:46:15;100239.81;;;15.77;100.00
46836;BME280;32573;51.290;6.926;2023-05-09T03:48:46;100238.06;;;15.76;100.00
46836;BME280;32573;51.290;6.926;2023-05-09T03:51:14;100234.53;;;15.75;100.00
46836;BME280;32573;51.290;6.926;2023-05-09T03:53:45;100229.28;;;15.75;100.00
46836;BME280;32573;51.290;6.926;2023-05-09T03:56:16;100223.09;;;15.74;100.00
46836;BME280;32573;51.290;6.926;2023-05-09T03:58:49;100219.56;;;15.74;100.00
46836;BME280;32573;51.290;6.926;2023-05-09T04:01:17;100218.66;;;15.72;100.00
46836;BME280;32573;51.290;6.926;2023-05-09T04:03:46;100211.63;;;15.71;100.00
46836;BME280;32573;51.290;6.926;2023-05-09T04:06:15;100210.75;;;15.72;100.00
46836;BME280;32573;51.290;6.926;2023-05-09T04:08:44;100209.91;;;15.73;100.00
46836;BME280;32573;51.290;6.926;2023-05-09T04:11:13;100216.03;;;15.73;100.00
46836;BME280;32573;51.290;6.926;2023-05-09T04:13:46;100211.66;;;15.72;100.00
46836;BME280;32573;51.290;6.926;2023-05-09T04:16:34;100207.25;;;15.73;100.00
46836;BME280;32573;51.290;6.926;2023-05-09T04:19:03;100203.75;;;15.72;100.00
46836;BME280;32573;51.290;6.926;2023-05-09T04:21:34;100198.47;;;15.72;100.00
46836;BME280;32573;51.290;6.926;2023-05-09T04:24:05;100198.44;;;15.74;100.00
46836;BME280;32573;51.290;6.926;2023-05-09T04:26:42;100195.81;;;15.72;100.00
46836;BME280;32573;51.290;6.926;2023-05-09T04:29:16;100194.03;;;15.74;100.00
46836;BME280;32573;51.290;6.926;2023-05-09T04:31:50;100198.44;;;15.74;100.00
46836;BME280;32573;51.290;6.926;2023-05-09T04:34:19;100184.38;;;15.73;100.00
46836;BME280;32573;51.290;6.926;2023-05-09T04:36:48;100189.63;;;15.72;100.00
46836;BME280;32573;51.290;6.926;2023-05-09T04:39:19;100183.47;;;15.71;100.00
46836;BME280;32573;51.290;6.926;2023-05-09T04:42:03;100178.19;;;15.71;100.00
46836;BME280;32573;51.290;6.926;2023-05-09T04:44:34;100177.34;;;15.72;100.00
46836;BME280;32573;51.290;6.926;2023-05-09T04:47:03;100178.19;;;15.71;100.00
46836;BME280;32573;51.290;6.926;2023-05-09T04:49:32;100182.63;;;15.72;100.00
46836;BME280;32573;51.290;6.926;2023-05-09T04:52:01;100173.78;;;15.72;100.00
46836;BME280;32573;51.290;6.926;2023-05-09T04:54:30;100179.97;;;15.72;100.00
46836;BME280;32573;51.290;6.926;2023-05-09T04:56:59;100185.25;;;15.72;100.00
46836;BME280;32573;51.290;6.926;2023-05-09T04:59:46;100178.19;;;15.71;100.00
46836;BME280;32573;51.290;6.926;2023-05-09T05:02:15;100187.91;;;15.74;100.00
46836;BME280;32573;51.290;6.926;2023-05-09T05:04:45;100179.97;;;15.72;100.00
46836;BME280;32573;51.290;6.926;2023-05-09T05:07:15;100180.84;;;15.73;100.00
46836;BME280;32573;51.290;6.926;2023-05-09T05:09:44;100175.56;;;15.74;100.00
46836;BME280;32573;51.290;6.926;2023-05-09T05:12:13;100177.34;;;15.76;100.00
46836;BME280;32573;51.290;6.926;2023-05-09T05:14:46;100169.44;;;15.76;100.00
46836;BME280;32573;51.290;6.926;2023-05-09T05:17:18;100170.34;;;15.78;100.00
46836;BME280;32573;51.290;6.926;2023-05-09T05:19:48;100165.94;;;15.80;100.00
46836;BME280;32573;51.290;6.926;2023-05-09T05:22:20;100164.19;;;15.82;100.00
46836;BME280;32573;51.290;6.926;2023-05-09T05:24:49;100162.44;;;15.84;100.00
46836;BME280;32573;51.290;6.926;2023-05-09T05:27:18;100160.69;;;15.84;100.00
46836;BME280;32573;51.290;6.926;2023-05-09T05:29:47;100150.16;;;15.86;100.00
46836;BME280;32573;51.290;6.926;2023-05-09T05:32:16;100151.91;;;15.88;100.00
46836;BME280;32573;51.290;6.926;2023-05-09T05:34:45;100156.34;;;15.91;100.00
46836;BME280;32573;51.290;6.926;2023-05-09T05:37:13;100153.69;;;15.92;100.00
46836;BME280;32573;51.290;6.926;2023-05-09T05:39:42;100144.91;;;15.93;100.00
46836;BME280;32573;51.290;6.926;2023-05-09T05:42:11;100145.81;;;15.95;100.00
46836;BME280;32573;51.290;6.926;2023-05-09T05:44:40;100141.41;;;15.96;100.00
46836;BME280;32573;51.290;6.926;2023-05-09T05:47:10;100132.59;;;15.97;100.00
46836;BME280;32573;51.290;6.926;2023-05-09T05:49:39;100135.25;;;15.99;100.00
46836;BME280;32573;51.290;6.926;2023-05-09T05:52:08;100127.34;;;16.00;100.00
46836;BME280;32573;51.290;6.926;2023-05-09T05:54:37;100128.22;;;16.01;100.00
46836;BME280;32573;51.290;6.926;2023-05-09T05:57:05;100128.22;;;16.02;100.00
46836;BME280;32573;51.290;6.926;2023-05-09T05:59:35;100125.56;;;16.02;100.00
46836;BME280;32573;51.290;6.926;2023-05-09T06:02:04;100121.19;;;16.04;100.00
46836;BME280;32573;51.290;6.926;2023-05-09T06:04:35;100118.56;;;16.07;100.00
46836;BME280;32573;51.290;6.926;2023-05-09T06:07:04;100120.34;;;16.11;100.00
46836;BME280;32573;51.290;6.926;2023-05-09T06:09:33;100113.34;;;16.15;100.00
46836;BME280;32573;51.290;6.926;2023-05-09T06:12:02;100112.47;;;16.19;100.00
46836;BME280;32573;51.290;6.926;2023-05-09T06:14:31;100103.66;;;16.22;100.00
46836;BME280;32573;51.290;6.926;2023-05-09T06:17:00;100106.31;;;16.25;100.00
46836;BME280;32573;51.290;6.926;2023-05-09T06:19:29;100102.81;;;16.29;100.00
46836;BME280;32573;51.290;6.926;2023-05-09T06:21:59;100093.13;;;16.32;100.00
46836;BME280;32573;51.290;6.926;2023-05-09T06:24:27;100096.69;;;16.36;100.00
46836;BME280;32573;51.290;6.926;2023-05-09T06:27:03;100096.69;;;16.42;100.00
46836;BME280;32573;51.290;6.926;2023-05-09T06:29:31;100091.44;;;16.48;100.00
46836;BME280;32573;51.290;6.926;2023-05-09T06:32:00;100086.16;;;16.53;100.00
46836;BME280;32573;51.290;6.926;2023-05-09T06:34:28;100085.28;;;16.58;100.00
46836;BME280;32573;51.290;6.926;2023-05-09T06:36:58;100084.41;;;16.64;100.00
46836;BME280;32573;51.290;6.926;2023-05-09T06:39:27;100082.66;;;16.72;100.00
46836;BME280;32573;51.290;6.926;2023-05-09T06:41:55;100082.66;;;16.77;100.00
46836;BME280;32573;51.290;6.926;2023-05-09T06:44:30;100075.66;;;16.84;100.00
46836;BME280;32573;51.290;6.926;2023-05-09T06:46:58;100073.03;;;16.88;100.00
46836;BME280;32573;51.290;6.926;2023-05-09T06:49:27;100065.09;;;16.91;100.00
46836;BME280;32573;51.290;6.926;2023-05-09T06:51:56;100068.63;;;16.96;100.00
46836;BME280;32573;51.290;6.926;2023-05-09T06:54:26;100064.22;;;17.01;100.00
46836;BME280;32573;51.290;6.926;2023-05-09T06:56:54;100058.91;;;17.04;100.00
46836;BME280;32573;51.290;6.926;2023-05-09T06:59:23;100057.16;;;17.08;100.00
46836;BME280;32573;51.290;6.926;2023-05-09T07:01:52;100057.16;;;17.11;100.00
46836;BME280;32573;51.290;6.926;2023-05-09T07:04:20;100051.88;;;17.13;100.00
46836;BME280;32573;51.290;6.926;2023-05-09T07:06:49;100053.66;;;17.15;100.00
46836;BME280;32573;51.290;6.926;2023-05-09T07:09:17;100054.53;;;17.17;100.00
46836;BME280;32573;51.290;6.926;2023-05-09T07:11:48;100043.06;;;17.20;100.00
46836;BME280;32573;51.290;6.926;2023-05-09T07:14:16;100036.88;;;17.22;100.00
46836;BME280;32573;51.290;6.926;2023-05-09T07:16:45;100034.22;;;17.29;100.00
46836;BME280;32573;51.290;6.926;2023-05-09T07:19:13;100032.44;;;17.35;100.00
46836;BME280;32573;51.290;6.926;2023-05-09T07:21:42;100039.50;;;17.42;100.00
46836;BME280;32573;51.290;6.926;2023-05-09T07:24:10;100034.19;;;17.49;100.00
46836;BME280;32573;51.290;6.926;2023-05-09T07:26:39;100025.34;;;17.56;100.00
46836;BME280;32573;51.290;6.926;2023-05-09T07:29:09;100025.31;;;17.63;100.00
46836;BME280;32573;51.290;6.926;2023-05-09T07:31:37;100017.34;;;17.69;100.00
46836;BME280;32573;51.290;6.926;2023-05-09T07:34:06;100012.91;;;17.76;100.00
46836;BME280;32573;51.290;6.926;2023-05-09T07:36:34;100011.13;;;17.84;100.00
46836;BME280;32573;51.290;6.926;2023-05-09T07:39:04;100021.75;;;17.87;100.00
46836;BME280;32573;51.290;6.926;2023-05-09T07:41:36;100011.97;;;17.94;100.00
46836;BME280;32573;51.290;6.926;2023-05-09T07:44:05;100014.63;;;17.96;100.00
46836;BME280;32573;51.290;6.926;2023-05-09T07:46:36;100002.25;;;17.98;100.00
46836;BME280;32573;51.290;6.926;2023-05-09T07:49:07;100004.00;;;17.99;100.00
46836;BME280;32573;51.290;6.926;2023-05-09T07:51:35;100012.84;;;18.01;100.00
46836;BME280;32573;51.290;6.926;2023-05-09T07:54:04;100004.00;;;18.03;100.00
46836;BME280;32573;51.290;6.926;2023-05-09T07:56:33;100005.72;;;18.09;100.00
46836;BME280;32573;51.290;6.926;2023-05-09T07:59:01;99996.88;;;18.13;100.00
46836;BME280;32573;51.290;6.926;2023-05-09T08:01:30;99990.72;;;18.13;100.00
46836;BME280;32573;51.290;6.926;2023-05-09T08:04:00;99989.81;;;18.15;100.00
46836;BME280;32573;51.290;6.926;2023-05-09T08:06:28;99988.88;;;18.19;100.00
46836;BME280;32573;51.290;6.926;2023-05-09T08:08:59;99984.44;;;18.24;100.00
46836;BME280;32573;51.290;6.926;2023-05-09T08:11:28;99974.69;;;18.29;100.00
46836;BME280;32573;51.290;6.926;2023-05-09T08:13:56;99971.09;;;18.37;100.00
46836;BME280;32573;51.290;6.926;2023-05-09T08:16:25;99978.13;;;18.44;100.00
46836;BME280;32573;51.290;6.926;2023-05-09T08:18:54;99966.59;;;18.51;100.00
46836;BME280;32573;51.290;6.926;2023-05-09T08:21:23;99957.69;;;18.58;100.00
46836;BME280;32573;51.290;6.926;2023-05-09T08:23:52;99954.97;;;18.66;100.00
46836;BME280;32573;51.290;6.926;2023-05-09T08:26:21;99945.19;;;18.74;100.00
46836;BME280;32573;51.290;6.926;2023-05-09T08:28:50;99947.78;;;18.82;100.00
46836;BME280;32573;51.290;6.926;2023-05-09T08:31:20;99938.91;;;18.87;100.00
46836;BME280;32573;51.290;6.926;2023-05-09T08:33:48;99936.19;;;18.92;100.00
46836;BME280;32573;51.290;6.926;2023-05-09T08:36:17;99935.28;;;18.96;100.00
46836;BME280;32573;51.290;6.926;2023-05-09T08:38:47;99932.59;;;19.02;100.00
46836;BME280;32573;51.290;6.926;2023-05-09T08:41:16;99936.03;;;19.09;100.00
46836;BME280;32573;51.290;6.926;2023-05-09T08:43:45;99931.53;;;19.15;100.00
46836;BME280;32573;51.290;6.926;2023-05-09T08:46:15;99929.72;;;19.21;100.00
46836;BME280;32573;51.290;6.926;2023-05-09T08:48:44;99921.72;;;19.24;100.00
46836;BME280;32573;51.290;6.926;2023-05-09T08:51:16;99924.38;;;19.25;100.00
46836;BME280;32573;51.290;6.926;2023-05-09T08:53:46;99916.34;;;19.27;100.00
46836;BME280;32573;51.290;6.926;2023-05-09T08:56:15;99911.88;;;19.32;100.00
46836;BME280;32573;51.290;6.926;2023-05-09T08:58:44;99916.25;;;19.36;100.00
46836;BME280;32573;51.290;6.926;2023-05-09T09:01:13;99910.91;;;19.39;100.00
46836;BME280;32573;51.290;6.926;2023-05-09T09:03:42;99905.53;;;19.45;100.00
46836;BME280;32573;51.290;6.926;2023-05-09T09:06:14;99916.13;;;19.48;100.00
46836;BME280;32573;51.290;6.926;2023-05-09T09:08:44;99907.19;;;19.54;100.00
46836;BME280;32573;51.290;6.926;2023-05-09T09:11:16;99907.16;;;19.57;100.00
46836;BME280;32573;51.290;6.926;2023-05-09T09:13:46;99895.66;;;19.56;100.00
46836;BME280;32573;51.290;6.926;2023-05-09T09:16:18;99897.41;;;19.57;100.00
46836;BME280;32573;51.290;6.926;2023-05-09T09:18:50;99891.25;;;19.55;100.00
46836;BME280;32573;51.290;6.926;2023-05-09T09:21:19;99885.00;;;19.59;100.00
46836;BME280;32573;51.290;6.926;2023-05-09T09:23:49;99884.09;;;19.62;100.00
46836;BME280;32573;51.290;6.926;2023-05-09T09:26:19;99880.50;;;19.68;100.00
46836;BME280;32573;51.290;6.926;2023-05-09T09:28:47;99883.97;;;19.73;100.00
46836;BME280;32573;51.290;6.926;2023-05-09T09:31:20;99878.53;;;19.79;100.00
46836;BME280;32573;51.290;6.926;2023-05-09T09:33:49;99876.69;;;19.84;100.00
46836;BME280;32573;51.290;6.926;2023-05-09T09:36:28;99873.06;;;19.91;100.00
46836;BME280;32573;51.290;6.926;2023-05-09T09:39:01;99881.88;;;19.93;100.00
46836;BME280;32573;51.290;6.926;2023-05-09T09:41:32;99868.53;;;19.96;100.00
46836;BME280;32573;51.290;6.926;2023-05-09T09:44:08;99865.81;;;20.02;100.00
46836;BME280;32573;51.290;6.926;2023-05-09T09:46:42;99863.97;;;20.08;100.00
46836;BME280;32573;51.290;6.926;2023-05-09T09:49:12;99866.50;;;20.14;100.00
46836;BME280;32573;51.290;6.926;2023-05-09T09:51:41;99870.88;;;20.18;100.00
46836;BME280;32573;51.290;6.926;2023-05-09T09:54:11;99861.97;;;20.22;100.00
46836;BME280;32573;51.290;6.926;2023-05-09T09:56:45;99859.19;;;20.26;100.00
46836;BME280;32573;51.290;6.926;2023-05-09T09:59:22;99852.16;;;20.24;100.00
46836;BME280;32573;51.290;6.926;2023-05-09T10:01:55;99844.16;;;20.27;100.00
46836;BME280;32573;51.290;6.926;2023-05-09T10:04:26;99844.94;;;20.32;100.00
46836;BME280;32573;51.290;6.926;2023-05-09T10:06:56;99837.78;;;20.37;100.00
46836;BME280;32573;51.290;6.926;2023-05-09T10:09:26;99840.34;;;20.42;100.00
46836;BME280;32573;51.290;6.926;2023-05-09T10:11:57;99838.44;;;20.48;100.00
46836;BME280;32573;51.290;6.926;2023-05-09T10:14:30;99839.28;;;20.51;100.00
46836;BME280;32573;51.290;6.926;2023-05-09T10:17:03;99846.34;;;20.53;100.00
46836;BME280;32573;51.290;6.926;2023-05-09T10:19:37;99828.63;;;20.55;100.00
46836;BME280;32573;51.290;6.926;2023-05-09T10:22:13;99828.56;;;20.58;100.00
46836;BME280;32573;51.290;6.926;2023-05-09T10:24:46;99816.13;;;20.59;100.00
46836;BME280;32573;51.290;6.926;2023-05-09T10:27:21;99820.63;;;20.57;100.00
46836;BME280;32573;51.290;6.926;2023-05-09T10:30:02;99814.44;;;20.52;100.00
46836;BME280;32573;51.290;6.926;2023-05-09T10:32:37;99810.91;;;20.51;100.00
46836;BME280;32573;51.290;6.926;2023-05-09T10:35:09;99809.97;;;20.54;100.00
46836;BME280;32573;51.290;6.926;2023-05-09T10:37:40;99804.66;;;20.54;100.00
46836;BME280;32573;51.290;6.926;2023-05-09T10:40:10;99805.56;;;20.56;100.00
46836;BME280;32573;51.290;6.926;2023-05-09T10:42:43;99792.16;;;20.60;100.00
46836;BME280;32573;51.290;6.926;2023-05-09T10:45:12;99789.34;;;20.68;100.00
46836;BME280;32573;51.290;6.926;2023-05-09T10:47:42;99782.13;;;20.75;100.00
46836;BME280;32573;51.290;6.926;2023-05-09T10:50:11;99772.22;;;20.81;100.00
46836;BME280;32573;51.290;6.926;2023-05-09T10:53:08;99779.13;;;20.92;100.00
46836;BME280;32573;51.290;6.926;2023-05-09T10:55:48;99771.00;;;20.99;100.00
46836;BME280;32573;51.290;6.926;2023-05-09T10:58:25;99774.38;;;21.06;100.00
46836;BME280;32573;51.290;6.926;2023-05-09T11:00:56;99761.91;;;21.09;100.00
46836;BME280;32573;51.290;6.926;2023-05-09T11:03:25;99756.59;;;21.08;100.00
46836;BME280;32573;51.290;6.926;2023-05-09T11:05:56;99757.53;;;21.07;100.00
46836;BME280;32573;51.290;6.926;2023-05-09T11:08:27;99756.59;;;21.08;100.00
46836;BME280;32573;51.290;6.926;2023-05-09T11:11:05;99752.06;;;21.13;100.00
46836;BME280;32573;51.290;6.926;2023-05-09T11:13:36;99751.00;;;21.20;100.00
46836;BME280;32573;51.290;6.926;2023-05-09T11:16:09;99753.50;;;21.28;100.00
46836;BME280;32573;51.290;6.926;2023-05-09T11:18:51;99740.94;;;21.35;100.00
46836;BME280;32573;51.290;6.926;2023-05-09T11:21:20;99742.59;;;21.42;100.00
46836;BME280;32573;51.290;6.926;2023-05-09T11:23:49;99744.28;;;21.44;100.00
46836;BME280;32573;51.290;6.926;2023-05-09T11:26:21;99736.22;;;21.47;100.00
46836;BME280;32573;51.290;6.926;2023-05-09T11:28:53;99736.13;;;21.52;100.00
46836;BME280;32573;51.290;6.926;2023-05-09T11:31:25;99738.63;;;21.58;100.00
46836;BME280;32573;51.290;6.926;2023-05-09T11:33:59;99728.69;;;21.65;100.00
46836;BME280;32573;51.290;6.926;2023-05-09T11:36:31;99720.47;;;21.74;100.00
46836;BME280;32573;51.290;6.926;2023-05-09T11:39:02;99725.63;;;21.82;100.00
46836;BME280;32573;51.290;6.926;2023-05-09T11:41:38;99710.31;;;21.90;100.00
46836;BME280;32573;51.290;6.926;2023-05-09T11:44:16;99703.81;;;22.00;100.00
46836;BME280;32573;51.290;6.926;2023-05-09T11:46:45;99701.81;;;22.08;100.00
46836;BME280;32573;51.290;6.926;2023-05-09T11:49:14;99699.81;;;22.16;100.00
46836;BME280;32573;51.290;6.926;2023-05-09T11:51:43;99702.31;;;22.24;100.00
46836;BME280;32573;51.290;6.926;2023-05-09T11:54:11;99684.41;;;22.29;100.00
46836;BME280;32573;51.290;6.926;2023-05-09T11:56:41;99682.47;;;22.34;100.00
46836;BME280;32573;51.290;6.926;2023-05-09T11:59:10;99690.25;;;22.42;100.00
46836;BME280;32573;51.290;6.926;2023-05-09T12:01:42;99674.25;;;22.42;100.00
46836;BME280;32573;51.290;6.926;2023-05-09T12:04:10;99670.75;;;22.40;100.00
46836;BME280;32573;51.290;6.926;2023-05-09T12:06:45;99671.53;;;22.44;100.00
46836;BME280;32573;51.290;6.926;2023-05-09T12:09:14;99665.16;;;22.49;100.00
46836;BME280;32573;51.290;6.926;2023-05-09T12:11:47;99660.69;;;22.50;100.00
46836;BME280;32573;51.290;6.926;2023-05-09T12:14:25;99659.66;;;22.54;100.00
46836;BME280;32573;51.290;6.926;2023-05-09T12:16:55;99651.63;;;22.55;100.00
46836;BME280;32573;51.290;6.926;2023-05-09T12:19:24;99650.63;;;22.59;100.00
46836;BME280;32573;51.290;6.926;2023-05-09T12:21:57;99646.03;;;22.65;100.00
46836;BME280;32573;51.290;6.926;2023-05-09T12:24:27;99651.38;;;22.65;100.00
46836;BME280;32573;51.290;6.926;2023-05-09T12:26:57;99639.97;;;22.59;100.00
46836;BME280;32573;51.290;6.926;2023-05-09T12:29:26;99634.63;;;22.59;100.00
46836;BME280;32573;51.290;6.926;2023-05-09T12:31:56;99639.84;;;22.63;100.00
46836;BME280;32573;51.290;6.926;2023-05-09T12:34:25;99633.56;;;22.65;100.00
46836;BME280;32573;51.290;6.926;2023-05-09T12:36:54;99639.66;;;22.69;100.00
46836;BME280;32573;51.290;6.926;2023-05-09T12:39:24;99636.25;;;22.64;100.00
46836;BME280;32573;51.290;6.926;2023-05-09T12:41:53;99632.84;;;22.58;100.00
46836;BME280;32573;51.290;6.926;2023-05-09T12:44:31;99619.56;;;22.57;100.00
46836;BME280;32573;51.290;6.926;2023-05-09T12:47:02;99610.63;;;22.58;100.00
46836;BME280;32573;51.290;6.926;2023-05-09T12:49:31;99612.41;;;22.59;100.00
46836;BME280;32573;51.290;6.926;2023-05-09T12:51:59;99614.25;;;22.57;100.00
46836;BME280;32573;51.290;6.926;2023-05-09T12:54:31;99604.44;;;22.57;100.00
46836;BME280;32573;51.290;6.926;2023-05-09T12:56:59;99608.91;;;22.57;100.00
46836;BME280;32573;51.290;6.926;2023-05-09T12:59:30;99612.44;;;22.57;100.00